Coppell, Texas
Current Conditions -  °F | °C
As of 2:53 PM on Saturday 25 Oct 2014 (Local Time) from KDFW Reporting Station
Clear Clear  
Wind Chill: 86°   Ceiling: Unl
Heat Index: 86°   Visibility: 10mi
Dew Point: 61°   Wind: 9mph
Humidity: 43%   Direction: 220°SW
Pressure: 30.08"   Gusts: NA
Location:  32.98°N, 96.99°W
Report Text: KDFW 251953Z 22008KT 10SM CLR 30/16 A3008 RMK AO2 SLP176 T03000161
Loading
Personal Weather Stations






























Interactive Weather Map
Tropical Storm Tracking
New forecast layout! Learn more

10-Day Weather Forecast

Advertisements
Track Severe Weather on mobile